Time;durP1;ratioP1;P1;durP2;ratioP2;P2;SDS_P1;SDS_P2;PMS_P1;PMS_P2;Temp;Humidity;BMP_temperature;BMP_pressure;BME280_temperature;BME280_humidity;BME280_pressure;Samples;Min_cycle;Max_cycle;Signal;HPM_P1;HPM_P2
2022/09/02 00:00:42;;;;;;;;;;;15.20;99.90;;;;;;5006981;28;19929;-81
2022/09/02 00:03:08;;;;;;;;;;;15.10;99.90;;;;;;4986705;28;19925;-81
2022/09/02 00:05:34;;;;;;;;;;;15.10;99.90;;;;;;4986650;28;20284;-80
2022/09/02 00:07:59;;;;;;;;;;;15.10;99.90;;;;;;5001535;28;19925;-80
2022/09/02 00:10:25;;;;;;;;;;;15.00;99.90;;;;;;5004185;28;19972;-82
2022/09/02 00:12:51;;;;;;;;;;;14.90;99.90;;;;;;4980356;28;19926;-79
2022/09/02 00:15:18;;;;;;;;;;;14.90;99.90;;;;;;5006393;28;19928;-79
2022/09/02 00:17:44;;;;;;;;;;;14.90;99.90;;;;;;4999939;28;20001;-85
2022/09/02 00:20:09;;;;;;;;;;;14.90;99.90;;;;;;4974700;28;19929;-79
2022/09/02 00:22:35;;;;;;;;;;;14.90;99.90;;;;;;5007159;28;19929;-77
2022/09/02 00:25:01;;;;;;;;;;;14.80;99.90;;;;;;5008303;28;19925;-80
2022/09/02 00:27:27;;;;;;;;;;;14.80;99.90;;;;;;4985019;28;19922;-80
2022/09/02 00:29:53;;;;;;;;;;;14.80;99.90;;;;;;4983684;28;19929;-81
2022/09/02 00:32:18;;;;;;;;;;;14.80;99.90;;;;;;5007291;28;19930;-79
2022/09/02 00:34:44;;;;;;;;;;;14.80;99.90;;;;;;4999728;28;20332;-82
2022/09/02 00:37:12;;;;;;;;;;;14.70;99.90;;;;;;4992192;28;19932;-80
2022/09/02 00:39:38;;;;;;;;;;;14.70;99.90;;;;;;5008933;28;20005;-82
2022/09/02 00:42:05;;;;;;;;;;;14.70;99.90;;;;;;5008682;28;19964;-80
2022/09/02 00:44:33;;;;;;;;;;;14.70;99.90;;;;;;4991663;28;19932;-79
2022/09/02 00:46:59;;;;;;;;;;;14.70;99.90;;;;;;5009785;28;19925;-79
2022/09/02 00:49:27;;;;;;;;;;;14.60;99.90;;;;;;5009608;28;20015;-78
2022/09/02 00:52:08;;;;;;;;;;;14.60;99.90;;;;;;4992335;28;19986;-80
2022/09/02 00:54:38;;;;;;;;;;;14.60;99.90;;;;;;5004463;28;19925;-84
2022/09/02 00:57:06;;;;;;;;;;;14.50;99.90;;;;;;5005968;28;20043;-83
2022/09/02 00:59:35;;;;;;;;;;;14.50;99.90;;;;;;5008002;28;20212;-79
2022/09/02 01:02:02;;;;;;;;;;;14.50;99.90;;;;;;4992082;28;20013;-81
2022/09/02 01:04:28;;;;;;;;;;;14.50;99.90;;;;;;5009651;28;19925;-79
2022/09/02 01:06:53;;;;;;;;;;;14.40;99.90;;;;;;4978996;28;19925;-79
2022/09/02 01:09:19;;;;;;;;;;;14.40;99.90;;;;;;5010119;28;20550;-81
2022/09/02 01:11:48;;;;;;;;;;;14.40;99.90;;;;;;5007971;28;19973;-80
2022/09/02 01:14:14;;;;;;;;;;;14.30;99.90;;;;;;5005968;28;19929;-79
2022/09/02 01:16:42;;;;;;;;;;;14.30;99.90;;;;;;5008209;28;19929;-78
2022/09/02 01:19:16;;;;;;;;;;;14.30;99.90;;;;;;5008683;28;19929;-81
2022/09/02 01:21:49;;;;;;;;;;;14.30;99.90;;;;;;4991652;28;20385;-80
2022/09/02 01:24:15;;;;;;;;;;;14.30;99.90;;;;;;4992105;28;19929;-79
2022/09/02 01:26:41;;;;;;;;;;;14.30;99.90;;;;;;4988151;28;20923;-79
2022/09/02 01:29:07;;;;;;;;;;;14.20;99.90;;;;;;5005999;28;19925;-78
2022/09/02 01:31:33;;;;;;;;;;;14.20;99.90;;;;;;4991913;28;19937;-80
2022/09/02 01:33:59;;;;;;;;;;;14.10;99.90;;;;;;5008701;28;19979;-76
2022/09/02 01:36:25;;;;;;;;;;;14.10;99.90;;;;;;4991724;28;19964;-81
2022/09/02 01:38:50;;;;;;;;;;;14.00;99.90;;;;;;4891624;28;1824203;-79
2022/09/02 01:41:16;;;;;;;;;;;14.10;99.90;;;;;;4963506;28;19969;-82
2022/09/02 01:43:42;;;;;;;;;;;14.00;99.90;;;;;;4966632;28;19925;-79
2022/09/02 01:46:08;;;;;;;;;;;14.00;99.90;;;;;;4988989;28;19925;-79
2022/09/02 01:48:34;;;;;;;;;;;14.00;99.90;;;;;;4976207;28;19925;-79
2022/09/02 01:51:01;;;;;;;;;;;13.90;99.90;;;;;;4986914;28;19934;-81
2022/09/02 01:53:27;;;;;;;;;;;13.90;99.90;;;;;;4992205;28;19961;-79
2022/09/02 01:55:53;;;;;;;;;;;13.90;99.90;;;;;;4972410;28;19930;-80
2022/09/02 01:58:19;;;;;;;;;;;13.80;99.90;;;;;;4971450;28;19925;-79
2022/09/02 02:00:45;;;;;;;;;;;13.80;99.90;;;;;;4956580;28;19959;-80
2022/09/02 02:03:11;;;;;;;;;;;13.80;99.90;;;;;;4986396;28;19979;-79
2022/09/02 02:08:54;;;;;;;;;;;13.80;99.90;;;;;;5076729;23;19972;-86
2022/09/02 02:11:21;;;;;;;;;;;13.70;99.90;;;;;;4971269;28;19976;-83
2022/09/02 02:13:47;;;;;;;;;;;13.70;99.90;;;;;;5004238;28;20035;-83
2022/09/02 02:16:13;;;;;;;;;;;13.70;99.90;;;;;;5008008;28;19993;-82
2022/09/02 02:18:38;;;;;;;;;;;13.60;99.90;;;;;;4976394;28;20549;-82
2022/09/02 02:21:04;;;;;;;;;;;13.60;99.90;;;;;;4996818;28;19935;-82
2022/09/02 02:23:30;;;;;;;;;;;13.60;99.90;;;;;;5011817;28;19933;-82
2022/09/02 02:25:56;;;;;;;;;;;13.60;99.90;;;;;;4988400;28;19933;-81
2022/09/02 02:28:22;;;;;;;;;;;13.50;99.90;;;;;;4988847;28;19971;-81
2022/09/02 02:30:48;;;;;;;;;;;13.50;99.90;;;;;;5011343;28;19929;-81
2022/09/02 02:33:14;;;;;;;;;;;13.50;99.90;;;;;;5003743;28;20007;-82
2022/09/02 02:35:40;;;;;;;;;;;13.40;99.90;;;;;;4992747;28;20016;-81
2022/09/02 02:38:07;;;;;;;;;;;13.40;99.90;;;;;;4992063;28;19926;-80
2022/09/02 02:40:33;;;;;;;;;;;13.40;99.90;;;;;;5010406;28;20460;-81
2022/09/02 02:42:59;;;;;;;;;;;13.40;99.90;;;;;;5005843;28;20024;-82
2022/09/02 02:45:25;;;;;;;;;;;13.30;99.90;;;;;;4995319;28;19925;-81
2022/09/02 02:47:51;;;;;;;;;;;13.30;99.90;;;;;;5011410;28;19940;-82
2022/09/02 02:50:18;;;;;;;;;;;13.30;99.90;;;;;;5011796;28;19926;-79
2022/09/02 02:52:44;;;;;;;;;;;13.30;99.90;;;;;;5009393;28;20392;-82
2022/09/02 02:55:11;;;;;;;;;;;13.30;99.90;;;;;;4998311;28;19925;-81
2022/09/02 02:57:38;;;;;;;;;;;13.20;99.90;;;;;;4993405;28;20439;-82
2022/09/02 03:00:09;;;;;;;;;;;13.20;99.90;;;;;;4991838;28;19976;-82
2022/09/02 03:02:35;;;;;;;;;;;13.20;99.90;;;;;;4992786;28;19987;-83
2022/09/02 03:05:02;;;;;;;;;;;13.20;99.90;;;;;;4994791;28;20016;-84
2022/09/02 03:07:28;;;;;;;;;;;13.10;99.90;;;;;;5010043;28;19921;-84
2022/09/02 03:09:53;;;;;;;;;;;13.10;99.90;;;;;;4994839;28;19952;-82
2022/09/02 03:12:19;;;;;;;;;;;13.10;99.90;;;;;;5010494;28;20323;-81
2022/09/02 03:14:45;;;;;;;;;;;13.10;99.90;;;;;;4975875;28;20614;-82
2022/09/02 03:17:11;;;;;;;;;;;13.00;99.90;;;;;;4994314;28;19987;-82
2022/09/02 03:19:37;;;;;;;;;;;13.00;99.90;;;;;;4989936;28;20036;-80
2022/09/02 03:22:03;;;;;;;;;;;13.00;99.90;;;;;;4997832;28;20148;-81
2022/09/02 03:24:28;;;;;;;;;;;13.00;99.90;;;;;;4993782;28;19935;-81
2022/09/02 03:26:54;;;;;;;;;;;12.90;99.90;;;;;;4993739;28;19933;-84
2022/09/02 03:29:20;;;;;;;;;;;12.90;99.90;;;;;;4992920;28;19941;-81
2022/09/02 03:31:46;;;;;;;;;;;12.90;99.90;;;;;;5006036;28;20511;-85
2022/09/02 03:34:12;;;;;;;;;;;12.80;99.90;;;;;;5011110;28;19948;-81
2022/09/02 03:36:38;;;;;;;;;;;12.80;99.90;;;;;;4996472;28;19932;-82
2022/09/02 03:39:08;;;;;;;;;;;12.80;99.90;;;;;;4993656;28;20403;-81
2022/09/02 03:41:34;;;;;;;;;;;12.80;99.90;;;;;;5007207;28;20497;-84
2022/09/02 03:44:01;;;;;;;;;;;12.80;99.90;;;;;;5004060;28;20009;-84
2022/09/02 03:46:27;;;;;;;;;;;12.80;99.90;;;;;;4993680;28;20000;-81
2022/09/02 03:48:52;;;;;;;;;;;12.80;99.90;;;;;;5010067;28;20029;-84
2022/09/02 03:51:19;;;;;;;;;;;12.80;99.90;;;;;;5009021;28;20343;-82
2022/09/02 03:53:45;;;;;;;;;;;12.80;99.90;;;;;;5010460;28;19933;-83
2022/09/02 03:56:13;;;;;;;;;;;12.80;99.90;;;;;;4978906;28;19936;-83
2022/09/02 03:58:39;;;;;;;;;;;12.70;99.90;;;;;;5003969;28;20012;-82
2022/09/02 04:01:05;;;;;;;;;;;12.70;99.90;;;;;;4991902;28;20816;-81
2022/09/02 04:03:31;;;;;;;;;;;12.70;99.90;;;;;;4990080;28;19929;-83
2022/09/02 04:05:57;;;;;;;;;;;12.70;99.90;;;;;;5014643;28;19982;-81
2022/09/02 04:08:23;;;;;;;;;;;12.70;99.90;;;;;;4984617;28;19926;-83
2022/09/02 04:10:49;;;;;;;;;;;12.60;99.90;;;;;;4982007;28;20496;-84
2022/09/02 04:13:15;;;;;;;;;;;12.50;99.90;;;;;;4973157;28;19929;-85
2022/09/02 04:15:43;;;;;;;;;;;12.50;99.90;;;;;;4989377;28;20032;-83
2022/09/02 04:18:10;;;;;;;;;;;12.50;99.90;;;;;;4986510;28;19932;-86
2022/09/02 04:20:40;;;;;;;;;;;12.40;99.90;;;;;;4974310;28;19925;-82
2022/09/02 04:23:06;;;;;;;;;;;12.40;99.90;;;;;;4986899;28;20365;-88
2022/09/02 04:25:32;;;;;;;;;;;12.40;99.90;;;;;;4971768;28;19969;-83
2022/09/02 04:27:58;;;;;;;;;;;12.40;99.90;;;;;;4985248;28;20305;-83
2022/09/02 04:30:24;;;;;;;;;;;12.40;99.90;;;;;;4988994;28;19930;-82
2022/09/02 04:32:53;;;;;;;;;;;12.40;99.90;;;;;;4985789;28;19930;-82
2022/09/02 04:35:19;;;;;;;;;;;12.40;99.90;;;;;;4989831;28;20523;-81
2022/09/02 04:37:47;;;;;;;;;;;12.40;99.90;;;;;;4976764;28;19922;-80
2022/09/02 04:40:14;;;;;;;;;;;12.40;99.90;;;;;;4971409;28;19970;-81
2022/09/02 04:42:40;;;;;;;;;;;12.30;99.90;;;;;;4985198;28;19930;-81
2022/09/02 04:45:06;;;;;;;;;;;12.40;99.90;;;;;;4966772;28;19933;-84
2022/09/02 04:47:33;;;;;;;;;;;12.30;99.90;;;;;;4983459;28;20423;-82
2022/09/02 04:49:58;;;;;;;;;;;12.30;99.90;;;;;;4989040;28;20396;-84
2022/09/02 04:52:24;;;;;;;;;;;12.30;99.90;;;;;;4982995;28;20025;-82
2022/09/02 04:54:50;;;;;;;;;;;12.30;99.90;;;;;;4973129;28;19929;-83
2022/09/02 04:57:16;;;;;;;;;;;12.40;99.90;;;;;;4988042;28;20004;-84
2022/09/02 04:59:42;;;;;;;;;;;12.40;99.90;;;;;;4971202;28;19926;-82
2022/09/02 05:02:08;;;;;;;;;;;12.40;99.90;;;;;;4983785;28;19940;-81
2022/09/02 05:04:34;;;;;;;;;;;12.30;99.90;;;;;;4984560;28;19934;-82
2022/09/02 05:07:00;;;;;;;;;;;12.30;99.90;;;;;;4974047;28;19925;-80
2022/09/02 05:09:27;;;;;;;;;;;12.30;99.90;;;;;;4987724;28;19932;-81
2022/09/02 05:11:56;;;;;;;;;;;12.40;99.90;;;;;;5009446;28;20044;-83
2022/09/02 05:14:23;;;;;;;;;;;12.40;99.90;;;;;;4988629;28;19936;-81
2022/09/02 05:16:52;;;;;;;;;;;12.40;99.90;;;;;;4992289;28;19983;-89
2022/09/02 05:19:20;;;;;;;;;;;12.40;99.90;;;;;;4987287;28;19961;-83
2022/09/02 05:21:46;;;;;;;;;;;12.40;99.90;;;;;;5008897;28;19925;-81
2022/09/02 05:24:12;;;;;;;;;;;12.40;99.90;;;;;;5007858;28;20406;-81
2022/09/02 05:26:40;;;;;;;;;;;12.40;99.90;;;;;;4992424;28;19947;-81
2022/09/02 05:29:07;;;;;;;;;;;12.50;99.90;;;;;;5006889;28;19979;-83
2022/09/02 05:31:33;;;;;;;;;;;12.60;99.90;;;;;;4988206;28;20032;-80
2022/09/02 05:33:59;;;;;;;;;;;12.60;99.90;;;;;;4991533;28;20016;-82
2022/09/02 05:36:24;;;;;;;;;;;12.60;99.90;;;;;;5008981;28;19971;-79
2022/09/02 05:38:50;;;;;;;;;;;12.60;99.90;;;;;;4991076;28;19936;-82
2022/09/02 05:41:22;;;;;;;;;;;12.70;99.90;;;;;;4991199;28;19929;-83
2022/09/02 05:43:49;;;;;;;;;;;12.80;99.90;;;;;;4998003;28;20333;-79
2022/09/02 05:46:19;;;;;;;;;;;12.80;99.90;;;;;;4987912;28;19941;-82
2022/09/02 05:49:05;;;;;;;;;;;12.90;99.90;;;;;;4987471;28;20036;-84
2022/09/02 05:51:40;;;;;;;;;;;12.90;99.90;;;;;;4982730;28;20584;-82
2022/09/02 05:54:07;;;;;;;;;;;13.00;99.90;;;;;;5001257;28;20025;-83
2022/09/02 05:56:52;;;;;;;;;;;13.10;99.90;;;;;;4996707;28;19925;-85
2022/09/02 05:59:19;;;;;;;;;;;13.10;99.90;;;;;;4980817;28;20490;-79
2022/09/02 06:01:46;;;;;;;;;;;13.20;99.90;;;;;;5003149;28;19925;-82
2022/09/02 06:04:12;;;;;;;;;;;13.30;99.90;;;;;;4993763;28;19940;-84
2022/09/02 06:06:38;;;;;;;;;;;13.40;99.90;;;;;;4983042;28;19925;-79
2022/09/02 06:09:07;;;;;;;;;;;13.50;99.90;;;;;;4991251;28;20069;-82
2022/09/02 06:11:33;;;;;;;;;;;13.60;99.90;;;;;;4973011;28;19933;-87
2022/09/02 06:13:59;;;;;;;;;;;13.60;99.90;;;;;;4982189;28;19933;-87
2022/09/02 06:16:25;;;;;;;;;;;13.70;99.90;;;;;;4989516;28;19929;-80
2022/09/02 06:18:51;;;;;;;;;;;13.80;99.90;;;;;;4983054;28;19936;-83
2022/09/02 06:21:19;;;;;;;;;;;13.90;99.90;;;;;;4990214;28;19926;-82
2022/09/02 06:23:45;;;;;;;;;;;14.00;99.90;;;;;;4987756;28;19929;-83
2022/09/02 06:26:16;;;;;;;;;;;14.00;99.90;;;;;;4975537;28;19934;-81
2022/09/02 06:28:42;;;;;;;;;;;14.10;99.90;;;;;;4994286;28;19933;-84
2022/09/02 06:31:09;;;;;;;;;;;14.20;99.90;;;;;;5006649;28;20405;-80
2022/09/02 06:33:36;;;;;;;;;;;14.20;99.90;;;;;;4989445;28;19941;-81
2022/09/02 06:36:04;;;;;;;;;;;14.40;99.90;;;;;;4990679;28;19925;-84
2022/09/02 06:38:30;;;;;;;;;;;14.40;99.90;;;;;;5011489;28;19948;-78
2022/09/02 06:40:56;;;;;;;;;;;14.50;99.90;;;;;;5008511;28;19925;-79
2022/09/02 06:43:22;;;;;;;;;;;14.60;99.90;;;;;;5005113;28;20344;-80
2022/09/02 06:45:48;;;;;;;;;;;14.70;99.90;;;;;;4990738;28;20392;-79
2022/09/02 06:48:14;;;;;;;;;;;14.80;99.90;;;;;;4984160;28;19932;-80
2022/09/02 06:50:40;;;;;;;;;;;14.90;99.90;;;;;;4978717;28;20268;-79
2022/09/02 06:53:08;;;;;;;;;;;15.00;99.90;;;;;;5010005;28;19933;-78
2022/09/02 06:55:34;;;;;;;;;;;15.20;99.90;;;;;;5010952;28;20375;-79
2022/09/02 06:58:00;;;;;;;;;;;15.30;99.90;;;;;;4993387;28;19929;-80
2022/09/02 07:00:26;;;;;;;;;;;15.40;99.90;;;;;;4976112;28;19932;-77
2022/09/02 07:05:08;;;;;;;;;;;15.40;99.90;;;;;;5008417;28;19928;-81
2022/09/02 07:05:38;;;;;;;;;;;15.50;99.90;;;;;;5011894;28;19931;-80
2022/09/02 07:08:04;;;;;;;;;;;15.60;99.90;;;;;;4988346;28;20622;-77
2022/09/02 07:10:30;;;;;;;;;;;15.70;99.90;;;;;;5007436;28;19926;-81
2022/09/02 07:12:56;;;;;;;;;;;16.10;99.90;;;;;;4987408;28;20411;-80
2022/09/02 07:15:25;;;;;;;;;;;16.80;99.90;;;;;;4973235;28;20019;-80
2022/09/02 07:17:51;;;;;;;;;;;17.60;99.90;;;;;;4989525;28;19988;-81
2022/09/02 07:20:16;;;;;;;;;;;18.40;99.90;;;;;;4990596;28;19933;-78
2022/09/02 07:22:42;;;;;;;;;;;18.90;99.90;;;;;;4991036;28;19930;-81
2022/09/02 07:25:09;;;;;;;;;;;18.50;99.90;;;;;;4976193;28;19926;-78
2022/09/02 07:27:38;;;;;;;;;;;18.20;99.90;;;;;;4994339;28;19955;-79
2022/09/02 07:30:05;;;;;;;;;;;18.00;99.90;;;;;;4996957;28;20024;-77
2022/09/02 07:32:31;;;;;;;;;;;18.00;99.90;;;;;;5013813;28;19932;-80
2022/09/02 07:34:57;;;;;;;;;;;17.90;99.90;;;;;;5015603;28;20006;-78
2022/09/02 07:37:23;;;;;;;;;;;18.10;99.90;;;;;;5022931;28;19937;-80
2022/09/02 07:39:48;;;;;;;;;;;18.70;99.90;;;;;;4989292;28;19985;-84
2022/09/02 07:42:15;;;;;;;;;;;19.40;99.90;;;;;;4988141;28;19934;-84
2022/09/02 07:44:43;;;;;;;;;;;20.00;99.90;;;;;;4971349;28;19941;-80
2022/09/02 07:47:09;;;;;;;;;;;20.50;99.90;;;;;;4984237;28;19929;-81
2022/09/02 07:49:35;;;;;;;;;;;21.10;99.90;;;;;;5003129;28;19934;-87
2022/09/02 07:52:01;;;;;;;;;;;21.60;99.90;;;;;;4989130;28;19930;-79
2022/09/02 07:54:27;;;;;;;;;;;22.00;99.90;;;;;;4990724;28;19945;-82
2022/09/02 07:56:53;;;;;;;;;;;22.20;99.60;;;;;;5009355;28;20475;-84
2022/09/02 07:59:20;;;;;;;;;;;22.20;98.50;;;;;;4993126;28;20026;-82
2022/09/02 08:01:47;;;;;;;;;;;22.40;98.30;;;;;;5000372;28;20384;-79
2022/09/02 08:04:14;;;;;;;;;;;22.60;97.70;;;;;;4999033;28;19930;-82
2022/09/02 08:06:40;;;;;;;;;;;22.90;96.80;;;;;;4991440;28;19922;-81
2022/09/02 08:09:10;;;;;;;;;;;23.10;96.30;;;;;;5005610;28;19933;-86
2022/09/02 08:11:40;;;;;;;;;;;23.40;94.10;;;;;;5006825;28;19964;-79
2022/09/02 08:14:10;;;;;;;;;;;23.50;95.10;;;;;;4977427;28;19948;-78
2022/09/02 08:16:37;;;;;;;;;;;23.90;94.00;;;;;;5009298;28;19925;-84
2022/09/02 08:19:04;;;;;;;;;;;23.90;92.60;;;;;;4992828;28;20490;-82
2022/09/02 08:21:30;;;;;;;;;;;23.90;91.80;;;;;;4997716;28;20404;-79
2022/09/02 08:23:56;;;;;;;;;;;24.20;92.00;;;;;;4987894;28;19941;-85
2022/09/02 08:26:22;;;;;;;;;;;24.20;90.40;;;;;;4978447;28;19984;-79
2022/09/02 08:28:48;;;;;;;;;;;24.10;90.30;;;;;;5006365;28;19972;-84
2022/09/02 08:31:14;;;;;;;;;;;24.30;91.10;;;;;;4987810;28;19926;-79
2022/09/02 08:33:39;;;;;;;;;;;24.40;90.00;;;;;;4987356;28;19975;-79
2022/09/02 08:36:10;;;;;;;;;;;24.40;89.00;;;;;;5012282;28;20016;-80
2022/09/02 08:38:36;;;;;;;;;;;24.50;89.40;;;;;;5004581;28;19932;-82
2022/09/02 08:41:10;;;;;;;;;;;24.50;89.20;;;;;;4979462;28;19933;-84
2022/09/02 08:43:41;;;;;;;;;;;24.30;89.60;;;;;;4995851;28;19932;-80
2022/09/02 08:46:10;;;;;;;;;;;24.10;90.00;;;;;;5026439;28;19972;-81
2022/09/02 08:48:35;;;;;;;;;;;23.90;90.20;;;;;;5003826;28;19929;-84
2022/09/02 08:51:03;;;;;;;;;;;23.40;89.90;;;;;;5020556;28;19979;-79
2022/09/02 08:53:53;;;;;;;;;;;23.10;91.10;;;;;;5008280;28;19948;-81
2022/09/02 08:56:19;;;;;;;;;;;22.80;91.00;;;;;;4996413;28;19933;-82
2022/09/02 08:58:47;;;;;;;;;;;22.50;92.40;;;;;;5003705;28;19925;-82
2022/09/02 09:01:24;;;;;;;;;;;22.30;93.00;;;;;;5016908;28;19933;-77
2022/09/02 09:04:02;;;;;;;;;;;22.10;92.60;;;;;;4987179;28;20407;-80
2022/09/02 09:06:46;;;;;;;;;;;22.00;93.10;;;;;;5007086;28;19999;-81
2022/09/02 09:09:18;;;;;;;;;;;21.90;93.50;;;;;;5003845;28;19976;-76
2022/09/02 09:12:01;;;;;;;;;;;22.10;94.00;;;;;;4989117;28;19968;-83
2022/09/02 09:14:27;;;;;;;;;;;22.20;93.30;;;;;;4998446;28;19926;-77
2022/09/02 09:17:05;;;;;;;;;;;22.30;93.50;;;;;;5006062;28;20016;-79
2022/09/02 09:19:48;;;;;;;;;;;22.20;93.00;;;;;;4990224;28;19929;-80
2022/09/02 09:22:28;;;;;;;;;;;22.20;93.00;;;;;;5004543;28;19933;-79
2022/09/02 09:24:56;;;;;;;;;;;22.30;93.40;;;;;;5005482;28;20359;-82
2022/09/02 09:27:22;;;;;;;;;;;22.30;92.50;;;;;;4987976;28;20031;-80
2022/09/02 09:29:49;;;;;;;;;;;22.30;92.60;;;;;;4988228;28;19961;-83
2022/09/02 09:32:14;;;;;;;;;;;22.40;92.00;;;;;;4989453;28;20315;-79
2022/09/02 09:34:52;;;;;;;;;;;22.50;91.70;;;;;;5002867;28;19933;-82
2022/09/02 09:37:32;;;;;;;;;;;22.50;91.40;;;;;;4975794;28;19944;-80
2022/09/02 09:39:58;;;;;;;;;;;22.70;90.70;;;;;;4991917;28;19933;-81
2022/09/02 09:42:32;;;;;;;;;;;22.70;90.30;;;;;;4985535;28;20387;-80
2022/09/02 09:44:58;;;;;;;;;;;22.80;90.30;;;;;;4991091;28;20060;-80
2022/09/02 09:47:25;;;;;;;;;;;22.90;90.50;;;;;;4991268;28;20396;-82
2022/09/02 09:49:52;;;;;;;;;;;23.10;90.50;;;;;;4972466;28;19987;-81
2022/09/02 09:52:22;;;;;;;;;;;23.20;89.60;;;;;;4987584;28;19976;-79
2022/09/02 09:55:04;;;;;;;;;;;23.30;89.80;;;;;;4988549;28;20396;-79
2022/09/02 09:57:30;;;;;;;;;;;23.40;89.60;;;;;;4989495;28;19929;-78
2022/09/02 09:59:56;;;;;;;;;;;23.40;88.30;;;;;;4966469;28;20028;-79
2022/09/02 10:02:24;;;;;;;;;;;23.40;85.50;;;;;;4959342;28;19926;-79
2022/09/02 10:05:09;;;;;;;;;;;23.40;86.30;;;;;;4972264;28;19929;-81
2022/09/02 10:07:37;;;;;;;;;;;23.30;85.30;;;;;;4969912;28;20012;-79
2022/09/02 10:10:16;;;;;;;;;;;23.40;86.60;;;;;;5000454;28;19991;-80
2022/09/02 10:12:43;;;;;;;;;;;23.50;85.40;;;;;;5002898;28;19929;-80
2022/09/02 10:15:09;;;;;;;;;;;23.50;85.30;;;;;;4998442;28;19926;-78
2022/09/02 10:17:42;;;;;;;;;;;23.50;85.10;;;;;;4990491;28;20053;-79
2022/09/02 10:20:11;;;;;;;;;;;23.60;84.60;;;;;;5008514;28;20307;-79
2022/09/02 10:22:53;;;;;;;;;;;23.70;82.10;;;;;;5006503;28;19983;-82
2022/09/02 10:25:21;;;;;;;;;;;23.70;82.30;;;;;;5011990;28;19935;-82
2022/09/02 10:27:51;;;;;;;;;;;23.70;83.00;;;;;;4975596;28;19921;-79
2022/09/02 10:30:20;;;;;;;;;;;23.80;79.60;;;;;;5006506;28;19925;-78
2022/09/02 10:32:47;;;;;;;;;;;23.80;79.20;;;;;;4997400;28;19928;-80
2022/09/02 10:35:13;;;;;;;;;;;23.80;80.60;;;;;;5004556;28;19925;-80
2022/09/02 10:37:53;;;;;;;;;;;23.90;80.60;;;;;;4992856;28;19941;-81
2022/09/02 10:40:24;;;;;;;;;;;23.90;80.30;;;;;;5000150;28;19936;-80
2022/09/02 10:42:50;;;;;;;;;;;24.00;80.70;;;;;;4993148;28;19983;-80
2022/09/02 10:45:39;;;;;;;;;;;24.00;78.80;;;;;;5028324;28;19929;-78
2022/09/02 10:48:14;;;;;;;;;;;24.10;79.40;;;;;;4995848;28;20020;-79
2022/09/02 10:50:46;;;;;;;;;;;24.10;76.70;;;;;;5012591;28;20356;-85
2022/09/02 10:53:17;;;;;;;;;;;24.10;77.30;;;;;;5012084;28;19925;-78
2022/09/02 10:55:53;;;;;;;;;;;24.30;77.30;;;;;;4995824;28;20018;-80
2022/09/02 10:58:41;;;;;;;;;;;24.40;77.20;;;;;;5005487;28;20032;-82
2022/09/02 11:01:09;;;;;;;;;;;24.40;75.60;;;;;;4992631;28;20287;-82
2022/09/02 11:03:41;;;;;;;;;;;24.40;75.50;;;;;;5011340;28;20277;-80
2022/09/02 11:06:07;;;;;;;;;;;24.40;75.40;;;;;;4983349;28;19926;-84
2022/09/02 11:08:39;;;;;;;;;;;24.40;75.70;;;;;;5010970;28;20307;-83
2022/09/02 11:11:23;;;;;;;;;;;24.50;74.90;;;;;;5028023;28;19995;-79
2022/09/02 11:13:53;;;;;;;;;;;24.60;74.10;;;;;;5011491;28;19983;-82
2022/09/02 11:16:25;;;;;;;;;;;24.60;74.50;;;;;;5010995;28;19976;-79
2022/09/02 11:18:51;;;;;;;;;;;24.70;75.10;;;;;;4982680;28;19991;-78
2022/09/02 11:21:27;;;;;;;;;;;24.80;74.00;;;;;;5005733;28;19925;-80
2022/09/02 11:23:56;;;;;;;;;;;24.80;73.20;;;;;;4984835;28;20037;-81
2022/09/02 11:26:31;;;;;;;;;;;24.90;73.20;;;;;;5005366;28;19925;-82
2022/09/02 11:29:19;;;;;;;;;;;25.00;71.50;;;;;;5002978;28;19925;-82
2022/09/02 11:31:48;;;;;;;;;;;24.90;72.60;;;;;;5026420;28;19929;-80
2022/09/02 11:34:18;;;;;;;;;;;25.00;72.40;;;;;;5001108;28;19925;-80
2022/09/02 11:36:44;;;;;;;;;;;25.20;73.40;;;;;;4999189;28;19925;-77
2022/09/02 11:39:10;;;;;;;;;;;25.30;72.50;;;;;;4988941;28;19935;-83
2022/09/02 11:41:45;;;;;;;;;;;25.40;71.90;;;;;;4988464;28;19929;-80
2022/09/02 11:44:20;;;;;;;;;;;25.20;70.50;;;;;;5004791;28;19940;-80
2022/09/02 11:47:06;;;;;;;;;;;25.10;70.30;;;;;;5008950;28;20009;-80
2022/09/02 11:49:35;;;;;;;;;;;25.10;71.60;;;;;;5006216;28;20499;-83
2022/09/02 11:52:00;;;;;;;;;;;25.10;71.10;;;;;;5010260;28;19925;-81
2022/09/02 11:54:27;;;;;;;;;;;25.20;71.20;;;;;;5011177;28;19932;-87
2022/09/02 11:56:57;;;;;;;;;;;25.20;71.00;;;;;;5012127;28;20635;-86
2022/09/02 11:59:43;;;;;;;;;;;25.20;70.80;;;;;;4991553;28;19932;-79
2022/09/02 12:02:10;;;;;;;;;;;25.20;70.50;;;;;;4998649;28;19926;-81
2022/09/02 12:04:41;;;;;;;;;;;25.30;70.10;;;;;;4993770;28;20395;-82
2022/09/02 12:07:18;;;;;;;;;;;25.10;68.70;;;;;;4997075;28;19936;-81
2022/09/02 12:09:45;;;;;;;;;;;25.10;69.90;;;;;;5009829;28;19925;-83
2022/09/02 12:12:30;;;;;;;;;;;25.00;69.70;;;;;;5009705;28;19960;-79
2022/09/02 12:14:56;;;;;;;;;;;25.10;69.90;;;;;;5004971;28;20442;-81
2022/09/02 12:17:44;;;;;;;;;;;25.10;70.50;;;;;;5011677;28;19933;-80
2022/09/02 12:20:28;;;;;;;;;;;25.00;70.20;;;;;;5008415;28;20422;-84
2022/09/02 12:22:54;;;;;;;;;;;24.90;69.30;;;;;;5012043;28;19925;-83
2022/09/02 12:25:23;;;;;;;;;;;24.90;70.40;;;;;;5009390;28;19959;-80
2022/09/02 12:27:49;;;;;;;;;;;24.80;69.10;;;;;;5027157;28;20404;-80
2022/09/02 12:30:43;;;;;;;;;;;24.60;69.70;;;;;;5016708;28;19932;-81
2022/09/02 12:33:13;;;;;;;;;;;24.60;69.70;;;;;;5007329;28;20218;-81
2022/09/02 12:35:42;;;;;;;;;;;24.70;70.20;;;;;;5010926;28;20032;-78
2022/09/02 12:38:11;;;;;;;;;;;24.70;70.40;;;;;;4999708;28;19987;-82
2022/09/02 12:40:49;;;;;;;;;;;24.70;70.40;;;;;;5020124;28;20427;-81
2022/09/02 12:43:24;;;;;;;;;;;24.70;68.10;;;;;;5004676;28;19933;-79
2022/09/02 12:45:52;;;;;;;;;;;24.60;69.30;;;;;;5001738;28;19925;-83
2022/09/02 12:48:21;;;;;;;;;;;24.70;68.20;;;;;;5007382;28;19921;-80
2022/09/02 12:50:55;;;;;;;;;;;24.70;69.10;;;;;;5003773;28;19979;-79
2022/09/02 12:53:28;;;;;;;;;;;24.80;69.60;;;;;;5005275;28;19943;-77
2022/09/02 12:56:03;;;;;;;;;;;24.90;69.00;;;;;;5020934;28;19959;-81
2022/09/02 12:58:32;;;;;;;;;;;24.90;68.50;;;;;;5017887;28;20399;-79
2022/09/02 13:01:13;;;;;;;;;;;24.90;68.80;;;;;;4999371;28;19932;-81
2022/09/02 13:03:51;;;;;;;;;;;24.80;67.70;;;;;;5004136;28;20735;-80
2022/09/02 13:06:17;;;;;;;;;;;24.70;66.70;;;;;;4992806;28;19929;-78
2022/09/02 13:08:53;;;;;;;;;;;24.70;66.70;;;;;;5002256;28;19937;-82
2022/09/02 13:11:37;;;;;;;;;;;24.60;67.70;;;;;;4989325;28;20507;-80
2022/09/02 13:14:22;;;;;;;;;;;24.60;67.20;;;;;;4990461;28;19937;-80
2022/09/02 13:17:11;;;;;;;;;;;24.60;67.30;;;;;;5005862;28;20403;-79
2022/09/02 13:19:43;;;;;;;;;;;24.60;67.60;;;;;;4946184;28;19932;-79
2022/09/02 13:22:32;;;;;;;;;;;24.60;67.40;;;;;;4991748;28;19933;-79
2022/09/02 13:25:11;;;;;;;;;;;24.60;66.20;;;;;;4991398;28;19929;-77
2022/09/02 13:27:37;;;;;;;;;;;24.60;67.50;;;;;;4991861;28;19979;-79
2022/09/02 13:30:37;;;;;;;;;;;24.70;67.00;;;;;;4981637;28;19925;-80
2022/09/02 13:33:07;;;;;;;;;;;24.60;65.30;;;;;;4991896;28;20035;-81
2022/09/02 13:35:37;;;;;;;;;;;24.50;66.50;;;;;;5011161;28;20396;-78
2022/09/02 13:38:04;;;;;;;;;;;24.40;66.00;;;;;;5010123;28;19991;-84
2022/09/02 13:40:34;;;;;;;;;;;24.40;65.80;;;;;;5011093;28;19952;-82
2022/09/02 13:43:01;;;;;;;;;;;24.40;65.80;;;;;;4987590;28;19926;-87
2022/09/02 13:45:28;;;;;;;;;;;24.40;65.90;;;;;;4987784;28;20247;-83
2022/09/02 13:47:56;;;;;;;;;;;24.30;65.40;;;;;;4988953;28;19934;-82
2022/09/02 13:50:26;;;;;;;;;;;24.40;66.60;;;;;;4986772;28;20136;-84
2022/09/02 13:53:03;;;;;;;;;;;24.40;66.40;;;;;;4973170;28;19932;-82
2022/09/02 13:55:30;;;;;;;;;;;24.40;64.80;;;;;;4989512;28;20063;-82
2022/09/02 13:58:00;;;;;;;;;;;24.40;65.70;;;;;;4987305;28;19933;-80
2022/09/02 14:00:28;;;;;;;;;;;24.40;64.70;;;;;;4991446;28;19930;-80
2022/09/02 14:03:13;;;;;;;;;;;24.40;65.40;;;;;;4987457;28;19948;-79
2022/09/02 14:05:43;;;;;;;;;;;24.30;65.50;;;;;;4989038;28;19933;-80
2022/09/02 14:08:14;;;;;;;;;;;24.20;65.00;;;;;;4971661;28;19940;-78
2022/09/02 14:10:44;;;;;;;;;;;24.10;62.90;;;;;;5006865;28;19956;-80
2022/09/02 14:13:12;;;;;;;;;;;24.00;65.10;;;;;;5004238;28;19925;-80
2022/09/02 14:15:38;;;;;;;;;;;24.00;66.30;;;;;;5007238;28;20023;-80
2022/09/02 14:18:07;;;;;;;;;;;24.00;65.90;;;;;;4993042;28;20063;-79
2022/09/02 14:20:33;;;;;;;;;;;24.00;65.30;;;;;;4986333;28;19925;-77
2022/09/02 14:22:59;;;;;;;;;;;24.00;65.60;;;;;;4989731;28;19991;-79
2022/09/02 14:25:26;;;;;;;;;;;23.90;64.70;;;;;;5010610;28;20446;-82
2022/09/02 14:28:01;;;;;;;;;;;23.90;64.80;;;;;;5009127;28;19948;-80
2022/09/02 14:30:33;;;;;;;;;;;23.90;65.70;;;;;;5008198;28;19929;-81